Terminal Aerodrome Forecast
Issued by NWS

Home | Current Version | Previous Version | Text Only | Print | Product List | Glossary On
Versions: 1 2 3 4 5 6 7 8 9 10 11 12 13 14 15 16 17
000
FTUS45 KGJT 191131
TAFRIL
TAF
KRIL 191131Z 1912/2012 19012KT P6SM SKC
     FM191600 25020G32KT P6SM FEW140 FEW200
     FM191900 25026G40KT P6SM FEW130 FEW200
     FM200000 27019G30KT P6SM FEW100 SCT140
     FM200300 27013G21KT P6SM FEW080 SCT120
     FM200600 28008KT P6SM FEW090 SCT110=

USA.gov is the U.S. government's official web portal to all federal, state and local government web resources and services.